.
WxDataArchive / Data Records for 2007-08-18
2007-08-17 August 2007 2007-08-19

Data Records for Saturday, 18 August 2007

Time	Temp	Chill	HIndex	Humid	Dewpt	 Wind 	HiWind	WindDir	Rain 	Barom 
-----	----	-----	------	-----	-----	------	------	-------	-----	----- 
00:00	56.9	56.9	56.9	73	48.3	0	0	---	0.00	30.137 
00:05	56.7	56.7	56.7	73	48.1	0	0	---	0.00	30.136 
00:10	56.5	56.5	56.5	73	47.9	0	0	---	0.00	30.128 
00:15	56.2	56.2	56.2	75	48.4	0	0	---	0.00	30.134 
00:20	56.0	56.0	56.0	76	48.5	0	0	---	0.00	30.133 
00:25	55.7	55.7	55.7	76	48.3	0	0	---	0.00	30.137 
00:30	55.6	55.6	55.6	77	48.5	0	0	---	0.00	30.136 
00:35	55.3	55.3	55.3	78	48.6	0	0	---	0.00	30.137 
00:40	55.1	55.1	55.1	79	48.7	0	0	---	0.00	30.135 
00:45	54.8	54.8	54.8	80	48.7	0	0	---	0.00	30.132 
00:50	54.7	54.7	54.7	80	48.7	0	0	---	0.00	30.133 
00:55	54.5	54.5	54.5	81	48.8	0	0	---	0.00	30.138 
01:00	54.4	54.4	54.4	80	48.4	0	0	---	0.00	30.142 
01:05	54.2	54.2	54.2	81	48.5	0	0	---	0.00	30.142 
01:10	54.1	54.1	54.1	82	48.7	0	0	---	0.00	30.143 
01:15	54.1	54.1	54.1	82	48.7	0	0	---	0.00	30.142 
01:20	54.1	54.1	54.1	82	48.7	0	0	---	0.00	30.143 
01:25	54.1	54.1	54.1	82	48.7	0	0	---	0.00	30.144 
01:30	53.9	53.9	53.9	82	48.5	0	0	---	0.00	30.146 
01:35	53.6	53.6	53.6	83	48.6	0	0	---	0.00	30.146 
01:40	53.5	53.5	53.5	83	48.5	0	0	---	0.00	30.144 
01:45	53.3	53.3	53.3	84	48.6	0	0	---	0.00	30.143 
01:50	53.3	53.3	53.3	84	48.6	0	0	---	0.00	30.150 
01:55	53.3	53.3	53.3	84	48.6	0	0	---	0.00	30.153 
02:00	53.3	53.3	53.3	84	48.6	0	0	---	0.00	30.154 
02:05	53.3	53.3	53.3	84	48.6	0	0	---	0.00	30.155 
02:10	53.2	53.2	53.2	84	48.5	0	0	---	0.00	30.157 
02:15	53.1	53.1	53.1	84	48.4	0	0	---	0.00	30.158 
02:20	53.1	53.1	53.1	84	48.4	0	0	---	0.00	30.156 
02:25	53.1	53.1	53.1	84	48.4	0	0	---	0.00	30.154 
02:30	53.2	53.2	53.2	84	48.5	0	1	292	0.00	30.153 
02:35	53.3	53.3	53.3	83	48.3	0	0	---	0.00	30.156 
02:40	53.5	53.5	53.5	82	48.1	0	0	---	0.00	30.156 
02:45	53.6	53.6	53.6	82	48.2	0	1	292	0.00	30.157 
02:50	53.8	53.8	53.8	81	48.1	0	1	292	0.00	30.158 
02:55	53.9	53.9	53.9	80	47.9	0	0	---	0.00	30.160 
03:00	54.1	54.1	54.1	79	47.7	0	0	---	0.00	30.167 
03:05	54.2	54.2	54.2	79	47.8	0	0	---	0.00	30.169 
03:10	54.2	54.2	54.2	78	47.5	0	0	---	0.00	30.168 
03:15	54.2	54.2	54.2	78	47.5	0	0	---	0.00	30.167 
03:20	54.2	54.2	54.2	77	47.1	0	0	---	0.00	30.168 
03:25	54.2	54.2	54.2	77	47.1	0	0	---	0.00	30.170 
03:30	54.2	54.2	54.2	77	47.1	0	0	---	0.00	30.174 
03:35	54.1	54.1	54.1	77	47.0	0	1	292	0.00	30.174 
03:40	53.9	53.9	53.9	77	46.9	0	0	---	0.00	30.175 
03:45	53.9	53.9	53.9	77	46.9	0	0	---	0.00	30.176 
03:50	53.8	53.8	53.8	78	47.1	0	0	---	0.00	30.178 
03:55	53.6	53.6	53.6	78	46.9	0	0	---	0.00	30.183 
04:00	53.5	53.5	53.5	79	47.1	0	0	---	0.00	30.184 
04:05	53.2	53.2	53.2	79	46.9	0	0	---	0.00	30.189 
04:10	53.1	53.1	53.1	80	47.1	0	0	---	0.00	30.189 
04:15	52.9	52.9	52.9	80	46.9	0	0	---	0.00	30.192 
04:20	52.9	52.9	52.9	80	46.9	0	0	---	0.00	30.193 
04:25	52.8	52.8	52.8	80	46.8	0	0	---	0.00	30.191 
04:30	52.8	52.8	52.8	80	46.8	0	1	292	0.00	30.192 
04:35	52.8	52.8	52.8	81	47.1	0	0	---	0.00	30.190 
04:40	52.6	52.6	52.6	81	46.9	0	0	---	0.00	30.190 
04:45	52.5	52.5	52.5	80	46.5	0	0	---	0.00	30.192 
04:50	52.5	52.5	52.5	80	46.5	0	0	---	0.00	30.193 
04:55	52.5	52.5	52.5	81	46.8	0	0	---	0.00	30.194 
05:00	52.3	52.3	52.3	81	46.6	0	0	---	0.00	30.193 
05:05	52.3	52.3	52.3	81	46.6	0	1	292	0.00	30.193 
05:10	52.3	52.3	52.3	81	46.6	0	0	---	0.00	30.193 
05:15	52.3	52.3	52.3	81	46.6	0	1	292	0.00	30.195 
05:20	52.2	52.2	52.2	81	46.5	0	1	292	0.00	30.195 
05:25	52.2	52.2	52.2	81	46.5	0	0	---	0.00	30.195 
05:30	52.2	52.2	52.2	81	46.5	0	0	---	0.00	30.195 
05:35	52.2	52.2	52.2	80	46.2	0	0	---	0.00	30.199 
05:40	52.0	52.0	52.0	81	46.4	0	0	---	0.00	30.205 
05:45	52.0	52.0	52.0	81	46.4	0	0	---	0.00	30.210 
05:50	51.9	51.9	51.9	81	46.3	0	0	---	0.00	30.211 
05:55	51.7	51.7	51.7	82	46.4	0	0	---	0.00	30.211 
06:00	51.6	51.6	51.6	83	46.6	0	0	---	0.00	30.211 
06:05	51.4	51.4	51.4	83	46.4	0	0	---	0.00	30.215 
06:10	51.3	51.3	51.3	83	46.3	0	0	---	0.00	30.216 
06:15	51.3	51.3	51.3	84	46.6	0	0	---	0.00	30.215 
06:20	51.3	51.3	51.3	84	46.6	0	0	---	0.00	30.216 
06:25	51.4	51.4	51.4	83	46.4	0	0	---	0.00	30.219 
06:30	51.6	51.6	51.6	83	46.6	0	0	---	0.00	30.221 
06:35	51.9	51.9	51.9	83	46.9	0	0	---	0.00	30.223 
06:40	52.6	52.6	52.6	81	46.9	0	1	292	0.00	30.224 
06:45	53.5	53.5	53.5	79	47.1	0	1	292	0.00	30.227 
06:50	54.4	54.4	54.4	76	47.0	0	1	292	0.00	30.228 
06:55	55.1	55.1	55.1	74	47.0	0	2	292	0.00	30.229 
07:00	55.7	55.7	55.7	74	47.5	0	2	292	0.00	30.227 
07:05	56.0	56.0	56.0	73	47.5	0	2	292	0.00	30.232 
07:10	56.3	56.3	56.3	72	47.4	1	3	90	0.00	30.231 
07:15	56.6	56.6	56.6	70	46.9	1	4	90	0.00	30.233 
07:20	56.9	56.9	56.9	71	47.6	1	3	90	0.00	30.236 
07:25	57.2	57.2	57.2	70	47.5	2	4	90	0.00	30.238 
07:30	57.5	57.5	57.5	71	48.2	1	4	90	0.00	30.239 
07:35	57.8	57.8	57.8	69	47.7	1	4	90	0.00	30.239 
07:40	58.3	58.3	58.3	69	48.2	1	3	90	0.00	30.234 
07:45	58.6	58.6	58.6	69	48.5	2	5	90	0.00	30.232 
07:50	58.6	58.6	58.6	68	48.1	2	5	90	0.00	30.231 
07:55	58.6	58.6	58.6	68	48.1	2	4	90	0.00	30.231 
08:00	58.6	58.6	58.6	69	48.5	2	4	90	0.00	30.230 
08:05	58.9	58.9	58.9	69	48.7	2	5	90	0.00	30.230 
08:10	59.2	59.2	59.2	67	48.2	1	3	90	0.00	30.229 
08:15	59.2	59.2	59.2	69	49.0	2	4	90	0.00	30.230 
08:20	59.5	59.5	59.5	68	48.9	1	3	90	0.00	30.230 
08:25	59.9	59.9	59.9	68	49.3	1	4	68	0.00	30.228 
08:30	60.7	60.7	60.7	66	49.3	1	5	68	0.00	30.228 
08:35	61.2	61.2	61.2	67	50.2	2	5	90	0.00	30.228 
08:40	61.3	61.3	61.3	67	50.2	2	5	90	0.00	30.228 
08:45	61.8	61.8	61.8	66	50.3	1	3	135	0.00	30.229 
08:50	62.6	62.6	62.6	63	49.8	1	4	112	0.00	30.229 
08:55	62.9	62.9	62.9	64	50.5	2	4	112	0.00	30.228 
09:00	63.1	63.1	63.1	65	51.1	2	5	90	0.00	30.226 
09:05	63.7	63.7	63.7	63	50.9	1	4	90	0.00	30.228 
09:10	64.0	64.0	64.0	62	50.7	2	5	90	0.00	30.228 
09:15	64.2	64.2	64.2	62	50.9	2	4	112	0.00	30.225 
09:20	64.3	64.3	64.3	63	51.4	2	7	112	0.00	30.227 
09:25	64.7	64.7	64.7	63	51.8	2	5	90	0.00	30.222 
09:30	65.0	65.0	65.0	62	51.7	2	5	112	0.00	30.216 
09:35	65.3	65.3	65.3	62	51.9	2	5	90	0.00	30.221 
09:40	65.6	65.6	65.6	62	52.2	1	4	135	0.00	30.225 
09:45	66.0	66.0	66.0	63	53.0	2	4	68	0.00	30.226 
09:50	66.0	66.0	66.0	62	52.6	2	4	90	0.00	30.228 
09:55	66.3	66.3	66.3	62	52.9	3	6	90	0.00	30.229 
10:00	66.6	66.6	66.6	61	52.7	2	5	90	0.00	30.225 
10:05	67.1	67.1	67.1	60	52.7	2	5	68	0.00	30.230 
10:10	67.4	67.4	67.4	59	52.6	2	4	90	0.00	30.233 
10:15	67.4	67.4	67.4	60	53.0	2	5	90	0.00	30.237 
10:20	67.4	67.4	67.4	59	52.6	2	5	90	0.00	30.233 
10:25	67.8	67.8	67.8	59	52.9	1	4	112	0.00	30.238 
10:30	67.9	67.9	67.9	58	52.6	3	7	90	0.00	30.232 
10:35	67.6	67.6	67.6	59	52.8	3	6	90	0.00	30.231 
10:40	68.1	68.1	68.1	58	52.8	1	4	90	0.00	30.228 
10:45	68.8	68.8	68.8	55	52.0	2	6	90	0.00	30.224 
10:50	69.1	69.1	69.1	56	52.7	2	4	112	0.00	30.224 
10:55	68.9	68.9	68.9	54	51.6	2	5	90	0.00	30.226 
11:00	68.8	68.8	68.8	53	51.0	2	5	112	0.00	30.225 
11:05	68.9	68.9	68.9	51	50.0	1	4	68	0.00	30.227 
11:10	69.1	69.1	69.1	50	49.7	1	5	90	0.00	30.227 
11:15	69.3	69.3	69.3	52	50.9	2	9	112	0.00	30.227 
11:20	68.9	68.9	68.9	51	50.0	2	9	90	0.00	30.224 
11:25	68.6	68.6	68.6	50	49.2	3	6	90	0.00	30.224 
11:30	68.4	68.4	68.4	53	50.6	1	4	135	0.00	30.227 
11:35	68.4	68.4	68.4	52	50.1	1	4	90	0.00	30.227 
11:40	68.6	68.6	68.6	51	49.7	1	3	135	0.00	30.226 
11:45	68.4	68.4	68.4	53	50.6	1	4	90	0.00	30.228 
11:50	68.4	68.4	68.4	53	50.6	1	7	90	0.00	30.227 
11:55	68.3	68.3	68.3	51	49.5	2	5	90	0.00	30.227 
12:00	68.1	68.1	68.1	52	49.8	1	4	90	0.00	30.227 
12:05	68.3	68.3	68.3	55	51.5	1	3	112	0.00	30.228 
12:10	68.3	68.3	68.3	52	50.0	2	5	90	0.00	30.221 
12:15	68.4	68.4	68.4	53	50.6	2	5	90	0.00	30.220 
12:20	68.4	68.4	68.4	53	50.6	1	4	90	0.00	30.222 
12:25	68.8	68.8	68.8	54	51.5	2	5	112	0.00	30.216 
12:30	68.9	68.9	68.9	52	50.5	1	4	90	0.00	30.216 
12:35	69.1	69.1	69.1	56	52.7	0	2	90	0.00	30.217 
12:40	69.3	69.3	69.3	51	50.4	1	4	90	0.00	30.224 
12:45	69.3	69.3	69.3	52	50.9	1	2	112	0.00	30.216 
12:50	68.9	68.9	68.9	54	51.6	1	3	112	0.00	30.215 
12:55	68.6	68.6	68.6	52	50.3	2	5	112	0.00	30.214 
13:00	68.8	68.8	68.8	57	52.9	1	5	90	0.00	30.213 
13:05	69.6	69.6	69.6	49	49.6	2	4	135	0.00	30.212 
13:10	70.3	70.3	70.3	51	51.3	2	5	90	0.00	30.207 
13:15	70.6	70.6	70.6	51	51.6	2	5	90	0.00	30.204 
13:20	70.6	70.6	70.6	54	53.1	2	5	90	0.00	30.203 
13:25	70.8	70.8	70.8	52	52.3	2	6	90	0.00	30.205 
13:30	70.6	70.6	70.6	48	49.9	2	6	90	0.00	30.208 
13:35	70.6	70.6	70.6	48	49.9	2	5	112	0.00	30.207 
13:40	70.8	70.8	70.8	46	49.0	2	5	90	0.00	30.199 
13:45	70.4	70.4	70.4	49	50.3	1	4	90	0.00	30.201 
13:50	70.3	70.3	70.3	47	49.1	1	5	68	0.00	30.203 
13:55	69.9	69.9	69.9	49	49.9	1	3	90	0.00	30.200 
14:00	69.9	69.9	69.9	48	49.3	1	4	112	0.00	30.197 
14:05	70.1	70.1	70.1	49	50.0	3	5	90	0.00	30.195 
14:10	70.3	70.3	70.3	47	49.1	2	4	90	0.00	30.190 
14:15	70.9	70.9	70.9	47	49.7	1	4	68	0.00	30.185 
14:20	71.3	71.3	71.3	47	50.0	3	5	90	0.00	30.183 
14:25	71.3	71.3	71.3	46	49.4	2	6	90	0.00	30.182 
14:30	70.9	70.9	70.9	50	51.3	3	6	90	0.00	30.178 
14:35	70.6	70.6	70.6	46	48.8	1	5	90	0.00	30.177 
14:40	70.8	70.8	70.8	50	51.2	1	3	112	0.00	30.178 
14:45	70.9	70.9	70.9	47	49.7	1	5	90	0.00	30.177 
14:50	70.8	70.8	70.8	47	49.6	2	6	90	0.00	30.177 
14:55	70.6	70.6	70.6	47	49.4	1	3	90	0.00	30.178 
15:00	70.3	70.3	70.3	48	49.7	3	7	90	0.00	30.169 
15:05	70.3	70.3	70.3	51	51.3	2	4	90	0.00	30.169 
15:10	70.3	70.3	70.3	50	50.8	2	4	90	0.00	30.169 
15:15	70.3	70.3	70.3	50	50.8	2	4	90	0.00	30.168 
15:20	70.3	70.3	70.3	50	50.8	1	2	68	0.00	30.173 
15:25	70.3	70.3	70.3	49	50.2	1	3	68	0.00	30.169 
15:30	70.3	70.3	70.3	50	50.8	1	3	90	0.00	30.165 
15:35	70.3	70.3	70.3	52	51.8	1	4	90	0.00	30.168 
15:40	70.1	70.1	70.1	51	51.1	2	4	90	0.00	30.165 
15:45	69.9	69.9	69.9	50	50.4	1	4	90	0.00	30.164 
15:50	70.1	70.1	70.1	52	51.6	1	5	112	0.00	30.163 
15:55	70.1	70.1	70.1	54	52.7	2	4	90	0.00	30.155 
16:00	70.1	70.1	70.1	54	52.7	1	3	90	0.00	30.161 
16:05	70.1	70.1	70.1	53	52.2	1	3	112	0.00	30.163 
16:10	70.1	70.1	70.1	54	52.7	0	2	112	0.00	30.162 
16:15	69.9	69.9	69.9	54	52.5	1	3	112	0.00	30.155 
16:20	69.8	69.8	69.8	54	52.4	2	4	90	0.00	30.153 
16:25	69.6	69.6	69.6	55	52.7	1	6	90	0.00	30.149 
16:30	69.3	69.3	69.3	57	53.4	1	3	90	0.00	30.152 
16:35	69.1	69.1	69.1	55	52.2	1	4	90	0.00	30.152 
16:40	68.9	68.9	68.9	54	51.6	2	5	68	0.00	30.152 
16:45	68.8	68.8	68.8	56	52.5	2	4	90	0.00	30.154 
16:50	68.8	68.8	68.8	56	52.5	1	5	90	0.00	30.156 
16:55	68.6	68.6	68.6	57	52.7	1	3	112	0.00	30.153 
17:00	68.6	68.6	68.6	55	51.8	2	4	112	0.00	30.155 
17:05	68.6	68.6	68.6	56	52.3	2	4	90	0.00	30.153 
17:10	68.8	68.8	68.8	54	51.5	2	5	90	0.00	30.154 
17:15	68.8	68.8	68.8	54	51.5	2	6	68	0.00	30.151 
17:20	68.9	68.9	68.9	56	52.5	2	5	90	0.00	30.144 
17:25	68.9	68.9	68.9	56	52.5	2	6	90	0.00	30.148 
17:30	68.9	68.9	68.9	58	53.5	1	3	112	0.00	30.151 
17:35	68.9	68.9	68.9	56	52.5	2	6	90	0.00	30.146 
17:40	68.6	68.6	68.6	58	53.2	2	5	112	0.00	30.138 
17:45	68.4	68.4	68.4	60	54.0	1	2	112	0.00	30.142 
17:50	68.3	68.3	68.3	58	52.9	2	4	112	0.00	30.147 
17:55	68.1	68.1	68.1	58	52.8	2	5	90	0.00	30.140 
18:00	67.9	67.9	67.9	58	52.6	2	5	112	0.00	30.137 
18:05	67.8	67.8	67.8	59	52.9	1	6	90	0.00	30.140 
18:10	67.6	67.6	67.6	59	52.8	1	4	112	0.00	30.132 
18:15	67.6	67.6	67.6	62	54.1	2	5	112	0.00	30.125 
18:20	67.3	67.3	67.3	62	53.8	2	5	112	0.00	30.126 
18:25	67.1	67.1	67.1	62	53.6	1	4	90	0.00	30.125 
18:30	67.1	67.1	67.1	62	53.6	1	4	90	0.00	30.123 
18:35	66.9	66.9	66.9	62	53.4	1	6	90	0.00	30.124 
18:40	66.8	66.8	66.8	62	53.4	2	3	112	0.00	30.128 
18:45	66.8	66.8	66.8	62	53.4	2	6	90	0.00	30.132 
18:50	66.6	66.6	66.6	63	53.6	1	4	90	0.00	30.132 
18:55	66.4	66.4	66.4	64	53.8	1	4	112	0.00	30.132 
19:00	66.4	66.4	66.4	64	53.8	1	5	90	0.00	30.131 
19:05	66.3	66.3	66.3	65	54.2	1	4	112	0.00	30.132 
19:10	66.3	66.3	66.3	64	53.7	0	2	112	0.00	30.133 
19:15	66.1	66.1	66.1	64	53.6	1	3	90	0.00	30.142 
19:20	66.1	66.1	66.1	65	54.0	0	2	90	0.00	30.144 
19:25	66.0	66.0	66.0	65	53.9	0	1	90	0.00	30.151 
19:30	65.8	65.8	65.8	68	54.9	1	3	90	0.00	30.136 
19:35	65.5	65.5	65.5	69	55.1	2	4	90	0.00	30.134 
19:40	65.3	65.3	65.3	69	54.9	1	3	90	0.00	30.133 
19:45	65.0	65.0	65.0	69	54.6	1	4	90	0.00	30.129 
19:50	64.8	64.8	64.8	69	54.4	1	4	90	0.00	30.120 
19:55	64.7	64.7	64.7	69	54.3	2	4	112	0.00	30.118 
20:00	64.5	64.5	64.5	69	54.1	3	6	90	0.00	30.118 
20:05	64.5	64.5	64.5	69	54.1	1	5	112	0.00	30.116 
20:10	64.3	64.3	64.3	69	53.9	2	6	112	0.00	30.116 
20:15	64.2	64.2	64.2	70	54.2	2	5	90	0.00	30.117 
20:20	64.0	64.0	64.0	70	54.0	2	5	90	0.00	30.116 
20:25	64.0	64.0	64.0	71	54.4	2	5	90	0.00	30.114 
20:30	63.9	63.9	63.9	71	54.3	2	6	90	0.00	30.106 
20:35	63.9	63.9	63.9	72	54.7	1	2	90	0.00	30.116 
20:40	63.7	63.7	63.7	72	54.5	1	4	90	0.00	30.121 
20:45	63.7	63.7	63.7	72	54.5	1	3	90	0.00	30.119 
20:50	63.7	63.7	63.7	72	54.5	2	4	90	0.00	30.116 
20:55	63.5	63.5	63.5	72	54.3	1	4	90	0.00	30.115 
21:00	63.5	63.5	63.5	73	54.7	0	2	112	0.00	30.116 
21:05	63.5	63.5	63.5	72	54.3	1	3	112	0.00	30.107 
21:10	63.4	63.4	63.4	72	54.2	2	4	90	0.00	30.101 
21:15	63.4	63.4	63.4	72	54.2	1	4	90	0.00	30.098 
21:20	63.4	63.4	63.4	72	54.2	1	3	90	0.00	30.097 
21:25	63.4	63.4	63.4	71	53.8	2	4	90	0.00	30.098 
21:30	63.4	63.4	63.4	70	53.4	2	5	90	0.00	30.097 
21:35	63.4	63.4	63.4	69	53.0	1	3	90	0.00	30.096 
21:40	63.4	63.4	63.4	69	53.0	2	4	90	0.00	30.094 
21:45	63.4	63.4	63.4	70	53.4	1	4	68	0.00	30.096 
21:50	63.4	63.4	63.4	71	53.8	1	3	90	0.00	30.101 
21:55	63.4	63.4	63.4	71	53.8	2	5	90	0.00	30.097 
22:00	63.1	63.1	63.1	72	53.9	2	5	112	0.00	30.091 
22:05	62.9	62.9	62.9	72	53.7	0	2	90	0.00	30.095 
22:10	62.7	62.7	62.7	73	53.9	0	3	90	0.00	30.095 
22:15	62.7	62.7	62.7	73	53.9	1	3	90	0.00	30.090 
22:20	62.6	62.6	62.6	73	53.8	2	4	90	0.00	30.086 
22:25	62.4	62.4	62.4	73	53.6	2	5	90	0.00	30.080 
22:30	62.4	62.4	62.4	74	54.0	2	4	90	0.00	30.079 
22:35	62.3	62.3	62.3	74	53.9	1	3	112	0.00	30.079 
22:40	62.1	62.1	62.1	73	53.3	2	5	90	0.00	30.076 
22:45	62.3	62.3	62.3	73	53.5	1	4	90	0.00	30.076 
22:50	62.3	62.3	62.3	73	53.5	1	3	90	0.00	30.072 
22:55	62.4	62.4	62.4	73	53.6	2	5	90	0.00	30.073 
23:00	62.3	62.3	62.3	73	53.5	2	5	68	0.00	30.077 
23:05	62.3	62.3	62.3	73	53.5	2	4	68	0.00	30.075 
23:10	62.1	62.1	62.1	74	53.7	1	4	68	0.00	30.076 
23:15	62.1	62.1	62.1	74	53.7	1	4	90	0.00	30.072 
23:20	62.0	62.0	62.0	74	53.6	2	4	90	0.00	30.071 
23:25	62.0	62.0	62.0	74	53.6	1	4	90	0.00	30.073 
23:30	61.8	61.8	61.8	75	53.8	1	5	90	0.00	30.070 
23:35	61.8	61.8	61.8	75	53.8	1	3	112	0.00	30.069 
23:40	61.6	61.6	61.6	76	54.0	1	4	112	0.00	30.069 
23:45	61.5	61.5	61.5	76	53.9	1	3	112	0.00	30.067 
23:50	61.3	61.3	61.3	77	54.0	1	4	90	0.00	30.069 
23:55	61.2	61.2	61.2	77	53.9	2	3	90	0.00	30.071 

CoCoRaHS
IN-AL-39
A2 Web Hosting
Creative Commons License
GoDaddy
Look for:

loaded 2017-12-11 06:50:13 • last modified 2010-11-18 10:43:29
Privacy PolicyDisclaimer
• wx.awcolley.com is powered by PmWiki v.2002016 •
• all content (unless otherwise noted) © 2017 A W Colley